createdAt,value
2022-08-21T00:00:52.893Z,82.10
2022-08-21T00:01:52.962Z,82.10
2022-08-21T00:02:52.837Z,82.10
2022-08-21T00:03:55.640Z,82.20
2022-08-21T00:04:57.279Z,82.40
2022-08-21T00:05:53.864Z,82.81
2022-08-21T00:06:52.787Z,82.70
2022-08-21T00:07:52.777Z,82.81
2022-08-21T00:08:52.826Z,82.60
2022-08-21T00:09:52.747Z,82.60
2022-08-21T00:10:52.828Z,82.40
2022-08-21T00:11:52.725Z,82.40
2022-08-21T00:12:52.707Z,82.40
2022-08-21T00:13:52.746Z,82.54
2022-08-21T00:14:54.798Z,82.95
2022-08-21T00:15:52.689Z,83.15
2022-08-21T00:16:52.666Z,83.04
2022-08-21T00:17:52.657Z,82.95
2022-08-21T00:18:52.647Z,83.15
2022-08-21T00:19:52.656Z,83.35
2022-08-21T00:20:52.641Z,83.15
2022-08-21T00:21:52.606Z,82.95
2022-08-21T00:22:52.580Z,82.64
2022-08-21T00:23:52.578Z,82.75
2022-08-21T00:24:52.572Z,82.95
2022-08-21T00:25:52.578Z,82.95
2022-08-21T00:26:56.451Z,82.84
2022-08-21T00:27:53.226Z,82.84
2022-08-21T00:28:52.560Z,83.04
2022-08-21T00:29:52.486Z,83.04
2022-08-21T00:30:52.471Z,83.25
2022-08-21T00:31:52.549Z,83.39
2022-08-21T00:32:52.482Z,83.49
2022-08-21T00:33:52.490Z,83.39
2022-08-21T00:34:52.414Z,83.39
2022-08-21T00:35:52.411Z,83.39
2022-08-21T00:36:52.404Z,83.29
2022-08-21T00:37:52.386Z,83.59
2022-08-21T00:38:52.371Z,83.80
2022-08-21T00:39:52.430Z,83.90
2022-08-21T00:40:52.353Z,83.90
2022-08-21T00:41:52.329Z,83.69
2022-08-21T00:42:53.777Z,83.59
2022-08-21T00:43:52.320Z,83.59
2022-08-21T00:44:52.291Z,83.69
2022-08-21T00:45:52.291Z,83.69
2022-08-21T00:46:52.262Z,83.80
2022-08-21T00:47:52.296Z,83.90
2022-08-21T00:48:52.242Z,84.10
2022-08-21T00:49:52.301Z,84.00
2022-08-21T00:50:52.238Z,83.90
2022-08-21T00:51:52.275Z,84.10
2022-08-21T00:52:52.205Z,84.10
2022-08-21T00:53:53.672Z,84.30
2022-08-21T00:54:52.156Z,84.20
2022-08-21T00:55:52.165Z,84.10
2022-08-21T00:56:52.156Z,84.10
2022-08-21T00:57:56.040Z,84.10
2022-08-21T00:58:54.891Z,84.10
2022-08-21T00:59:52.131Z,84.00
2022-08-21T01:00:52.216Z,83.90
2022-08-21T01:01:52.232Z,84.00
2022-08-21T01:02:52.076Z,83.80
2022-08-21T01:03:52.109Z,83.49
2022-08-21T01:04:52.066Z,83.39
2022-08-21T01:05:52.016Z,83.18
2022-08-21T01:06:52.039Z,83.09
2022-08-21T01:07:52.054Z,83.09
2022-08-21T01:08:52.694Z,82.98
2022-08-21T01:09:52.004Z,83.09
2022-08-21T01:10:54.519Z,83.09
2022-08-21T01:11:52.310Z,83.18
2022-08-21T01:12:51.913Z,83.09
2022-08-21T01:13:51.951Z,83.18
2022-08-21T01:14:51.896Z,83.39
2022-08-21T01:15:51.879Z,83.63
2022-08-21T01:16:51.884Z,83.94
2022-08-21T01:17:51.899Z,84.24
2022-08-21T01:18:51.893Z,84.34
2022-08-21T01:19:51.824Z,84.64
2022-08-21T01:20:51.813Z,84.75
2022-08-21T01:21:51.803Z,84.75
2022-08-21T01:22:51.880Z,84.55
2022-08-21T01:23:51.872Z,84.64
2022-08-21T01:24:51.767Z,84.95
2022-08-21T01:25:51.749Z,84.95
2022-08-21T01:26:51.748Z,84.75
2022-08-21T01:27:51.733Z,84.44
2022-08-21T01:28:51.746Z,84.34
2022-08-21T01:29:51.732Z,84.34
2022-08-21T01:30:51.678Z,84.85
2022-08-21T01:31:51.664Z,85.15
2022-08-21T01:32:51.726Z,85.05
2022-08-21T01:33:51.644Z,85.15
2022-08-21T01:34:51.656Z,85.05
2022-08-21T01:35:51.645Z,85.19
2022-08-21T01:36:51.599Z,85.30
2022-08-21T01:37:51.574Z,85.39
2022-08-21T01:38:51.632Z,85.25
2022-08-21T01:39:51.610Z,85.05
2022-08-21T01:40:51.543Z,85.30
2022-08-21T01:41:51.531Z,85.30
2022-08-21T01:42:51.534Z,85.30
2022-08-21T01:43:51.515Z,85.39
2022-08-21T01:44:51.521Z,85.39
2022-08-21T01:45:51.498Z,85.30
2022-08-21T01:46:51.469Z,85.30
2022-08-21T01:47:51.461Z,85.09
2022-08-21T01:48:51.457Z,84.99
2022-08-21T01:49:51.436Z,84.69
2022-08-21T01:50:52.854Z,84.58
2022-08-21T01:51:52.489Z,84.58
2022-08-21T01:52:51.473Z,84.69
2022-08-21T01:53:51.374Z,84.78
2022-08-21T01:54:55.534Z,84.89
2022-08-21T01:55:51.367Z,84.99
2022-08-21T01:56:51.361Z,84.99
2022-08-21T01:57:51.323Z,84.99
2022-08-21T01:58:51.337Z,85.39
2022-08-21T01:59:51.341Z,85.70
2022-08-21T02:00:51.297Z,85.80
2022-08-21T02:01:51.258Z,85.70
2022-08-21T02:02:55.260Z,85.50
2022-08-21T02:03:51.260Z,85.39
2022-08-21T02:04:51.220Z,85.19
2022-08-21T02:05:51.899Z,84.99
2022-08-21T02:06:51.220Z,85.09
2022-08-21T02:07:51.193Z,85.19
2022-08-21T02:08:51.208Z,85.30
2022-08-21T02:09:51.150Z,85.39
2022-08-21T02:10:51.208Z,85.39
2022-08-21T02:11:51.124Z,85.30
2022-08-21T02:12:51.170Z,85.09
2022-08-21T02:13:51.181Z,85.09
2022-08-21T02:14:51.109Z,84.99
2022-08-21T02:15:51.075Z,85.09
2022-08-21T02:16:51.043Z,85.30
2022-08-21T02:17:52.136Z,85.60
2022-08-21T02:18:51.037Z,85.74
2022-08-21T02:19:51.011Z,86.05
2022-08-21T02:20:56.101Z,86.35
2022-08-21T02:21:52.018Z,86.65
2022-08-21T02:22:51.051Z,86.76
2022-08-21T02:23:50.975Z,86.76
2022-08-21T02:24:54.967Z,86.65
2022-08-21T02:25:50.943Z,86.76
2022-08-21T02:26:50.988Z,86.76
2022-08-21T02:27:50.909Z,86.65
2022-08-21T02:28:50.917Z,86.55
2022-08-21T02:29:50.896Z,86.45
2022-08-21T02:30:50.905Z,86.55
2022-08-21T02:31:50.874Z,86.55
2022-08-21T02:32:50.840Z,86.65
2022-08-21T02:33:50.850Z,86.65
2022-08-21T02:34:50.831Z,86.55
2022-08-21T02:35:50.815Z,86.35
2022-08-21T02:36:59.472Z,86.25
2022-08-21T02:37:51.810Z,85.94
2022-08-21T02:38:50.768Z,85.94
2022-08-21T02:39:50.854Z,85.94
2022-08-21T02:40:50.929Z,85.84
2022-08-21T02:41:50.800Z,85.84
2022-08-21T02:42:50.705Z,85.94
2022-08-21T02:43:50.708Z,85.94
2022-08-21T02:44:50.679Z,86.15
2022-08-21T02:45:50.678Z,86.25
2022-08-21T02:46:50.649Z,86.25
2022-08-21T02:47:50.635Z,86.25
2022-08-21T02:48:50.636Z,86.15
2022-08-21T02:49:50.623Z,86.15
2022-08-21T02:50:50.600Z,86.25
2022-08-21T02:51:50.577Z,86.35
2022-08-21T02:52:51.795Z,86.35
2022-08-21T02:53:50.572Z,86.45
2022-08-21T02:54:50.558Z,86.45
2022-08-21T02:55:50.538Z,86.55
2022-08-21T02:56:50.511Z,86.65
2022-08-21T02:57:50.502Z,86.65
2022-08-21T02:58:50.528Z,86.65
2022-08-21T02:59:50.499Z,86.65
2022-08-21T03:00:51.180Z,86.55
2022-08-21T03:01:50.559Z,86.55
2022-08-21T03:02:50.499Z,86.76
2022-08-21T03:03:50.518Z,87.06
2022-08-21T03:04:50.408Z,86.86
2022-08-21T03:05:50.422Z,86.86
2022-08-21T03:06:50.409Z,86.86
2022-08-21T03:07:50.475Z,86.86
2022-08-21T03:08:50.410Z,86.96
2022-08-21T03:09:55.311Z,86.96
2022-08-21T03:10:51.339Z,86.86
2022-08-21T03:11:50.327Z,86.86
2022-08-21T03:12:50.407Z,86.76
2022-08-21T03:13:50.295Z,86.65
2022-08-21T03:14:50.304Z,86.55
2022-08-21T03:15:50.276Z,86.45
2022-08-21T03:16:50.240Z,86.65
2022-08-21T03:17:50.241Z,86.86
2022-08-21T03:18:50.220Z,86.90
2022-08-21T03:19:50.221Z,87.20
2022-08-21T03:20:50.279Z,87.30
2022-08-21T03:21:50.207Z,87.40
2022-08-21T03:22:56.553Z,87.51
2022-08-21T03:23:51.189Z,87.51
2022-08-21T03:24:50.234Z,87.51
2022-08-21T03:25:50.126Z,87.51
2022-08-21T03:26:50.119Z,87.51
2022-08-21T03:27:50.189Z,87.51
2022-08-21T03:28:50.090Z,87.40
2022-08-21T03:29:50.102Z,87.30
2022-08-21T03:30:50.064Z,87.40
2022-08-21T03:31:50.076Z,87.30
2022-08-21T03:32:50.071Z,87.30
2022-08-21T03:33:50.023Z,87.30
2022-08-21T03:34:50.159Z,87.30
2022-08-21T03:35:50.019Z,87.30
2022-08-21T03:36:49.979Z,87.40
2022-08-21T03:37:49.988Z,87.61
2022-08-21T03:38:49.996Z,87.61
2022-08-21T03:39:49.990Z,87.71
2022-08-21T03:40:49.985Z,87.71
2022-08-21T03:41:49.919Z,87.71
2022-08-21T03:42:49.946Z,87.71
2022-08-21T03:43:49.893Z,87.61
2022-08-21T03:44:49.893Z,87.71
2022-08-21T03:45:49.866Z,87.81
2022-08-21T03:46:49.882Z,87.81
2022-08-21T03:47:49.863Z,87.81
2022-08-21T03:48:49.820Z,87.81
2022-08-21T03:49:49.832Z,87.92
2022-08-21T03:50:49.821Z,88.12
2022-08-21T03:51:49.848Z,88.32
2022-08-21T03:52:50.787Z,88.32
2022-08-21T03:53:53.733Z,88.42
2022-08-21T03:54:49.947Z,88.46
2022-08-21T03:55:49.725Z,88.56
2022-08-21T03:56:49.778Z,88.56
2022-08-21T03:57:49.753Z,88.76
2022-08-21T03:58:49.720Z,88.87
2022-08-21T03:59:49.961Z,88.76
2022-08-21T04:00:49.690Z,88.67
2022-08-21T04:01:49.857Z,88.67
2022-08-21T04:02:49.667Z,88.67
2022-08-21T04:03:49.700Z,88.67
2022-08-21T04:04:49.911Z,88.67
2022-08-21T04:05:49.593Z,88.67
2022-08-21T04:06:49.593Z,88.76
2022-08-21T04:07:49.626Z,88.87
2022-08-21T04:08:49.713Z,88.76
2022-08-21T04:09:49.550Z,88.62
2022-08-21T04:10:49.633Z,88.42
2022-08-21T04:11:49.545Z,88.21
2022-08-21T04:12:49.505Z,88.36
2022-08-21T04:13:49.486Z,88.46
2022-08-21T04:14:49.502Z,88.46
2022-08-21T04:15:49.468Z,88.46
2022-08-21T04:16:49.445Z,88.46
2022-08-21T04:17:49.448Z,88.56
2022-08-21T04:18:49.499Z,88.56
2022-08-21T04:19:53.648Z,88.56
2022-08-21T04:20:49.958Z,88.76
2022-08-21T04:21:49.481Z,88.76
2022-08-21T04:22:49.390Z,88.87
2022-08-21T04:23:49.394Z,88.87
2022-08-21T04:24:49.359Z,88.73
2022-08-21T04:25:49.469Z,88.42
2022-08-21T04:26:49.318Z,88.32
2022-08-21T04:27:49.324Z,88.21
2022-08-21T04:28:49.336Z,88.32
2022-08-21T04:29:49.292Z,88.32
2022-08-21T04:30:49.273Z,88.21
2022-08-21T04:31:49.256Z,88.01
2022-08-21T04:32:49.823Z,87.77
2022-08-21T04:33:49.216Z,87.57
2022-08-21T04:34:49.239Z,87.46
2022-08-21T04:35:49.204Z,87.46
2022-08-21T04:36:49.220Z,87.67
2022-08-21T04:37:49.173Z,87.77
2022-08-21T04:38:49.221Z,87.57
2022-08-21T04:39:53.345Z,87.57
2022-08-21T04:40:49.156Z,87.67
2022-08-21T04:41:49.114Z,87.46
2022-08-21T04:42:49.272Z,87.26
2022-08-21T04:43:49.086Z,87.57
2022-08-21T04:44:49.132Z,87.77
2022-08-21T04:45:49.147Z,87.57
2022-08-21T04:46:49.829Z,87.87
2022-08-21T04:47:52.688Z,87.83
2022-08-21T04:48:49.023Z,87.63
2022-08-21T04:49:49.029Z,87.43
2022-08-21T04:50:48.988Z,87.43
2022-08-21T04:51:48.975Z,87.43
2022-08-21T04:52:49.079Z,87.63
2022-08-21T04:53:48.945Z,87.63
2022-08-21T04:54:51.984Z,87.63
2022-08-21T04:55:49.925Z,87.83
2022-08-21T04:56:48.928Z,87.83
2022-08-21T04:57:49.495Z,88.13
2022-08-21T04:58:48.898Z,88.13
2022-08-21T04:59:48.885Z,88.13
2022-08-21T05:00:48.873Z,88.34
2022-08-21T05:01:48.899Z,88.64
2022-08-21T05:02:48.865Z,88.75
2022-08-21T05:03:48.814Z,88.64
2022-08-21T05:04:48.819Z,88.23
2022-08-21T05:05:48.807Z,87.89
2022-08-21T05:06:48.791Z,87.69
2022-08-21T05:07:48.860Z,87.79
2022-08-21T05:08:48.749Z,87.69
2022-08-21T05:09:48.745Z,87.69
2022-08-21T05:10:48.750Z,87.59
2022-08-21T05:11:48.777Z,87.48
2022-08-21T05:12:48.700Z,87.38
2022-08-21T05:13:48.683Z,87.38
2022-08-21T05:14:49.693Z,87.54
2022-08-21T05:15:52.518Z,87.65
2022-08-21T05:16:48.669Z,87.65
2022-08-21T05:17:53.778Z,87.65
2022-08-21T05:18:49.626Z,87.91
2022-08-21T05:19:48.611Z,88.31
2022-08-21T05:20:48.614Z,88.42
2022-08-21T05:21:48.604Z,88.31
2022-08-21T05:22:48.569Z,88.01
2022-08-21T05:23:48.824Z,88.11
2022-08-21T05:24:48.554Z,87.91
2022-08-21T05:25:48.525Z,87.81
2022-08-21T05:26:49.194Z,88.01
2022-08-21T05:27:48.501Z,88.07
2022-08-21T05:28:48.485Z,88.07
2022-08-21T05:29:48.605Z,87.77
2022-08-21T05:30:48.485Z,87.46
2022-08-21T05:31:48.507Z,87.36
2022-08-21T05:32:52.177Z,87.26
2022-08-21T05:33:49.206Z,87.36
2022-08-21T05:34:48.436Z,87.16
2022-08-21T05:35:48.403Z,86.85
2022-08-21T05:36:48.427Z,86.96
2022-08-21T05:37:48.366Z,86.96
2022-08-21T05:38:48.371Z,86.91
2022-08-21T05:40:05.410Z,86.91
2022-08-21T05:40:50.112Z,87.02
2022-08-21T05:41:48.324Z,86.91
2022-08-21T05:42:54.297Z,86.71
2022-08-21T05:43:49.279Z,86.91
2022-08-21T05:44:48.781Z,87.32
2022-08-21T05:45:48.345Z,86.82
2022-08-21T05:46:48.348Z,86.31
2022-08-21T05:47:48.275Z,85.90
2022-08-21T05:48:48.289Z,85.56
2022-08-21T05:49:48.225Z,85.86
2022-08-21T05:50:48.227Z,85.96
2022-08-21T05:51:48.190Z,86.37
2022-08-21T05:52:48.186Z,85.93
2022-08-21T05:53:48.161Z,85.36
2022-08-21T05:54:48.157Z,84.75
2022-08-21T05:55:48.139Z,84.71
2022-08-21T05:56:48.165Z,85.11
2022-08-21T05:57:48.204Z,84.81
2022-08-21T05:58:48.101Z,84.51
2022-08-21T05:59:48.313Z,84.27
2022-08-21T06:00:48.067Z,83.86
2022-08-21T06:01:48.099Z,82.95
2022-08-21T06:02:48.055Z,82.65
2022-08-21T06:03:48.082Z,82.51
2022-08-21T06:04:48.032Z,82.01
2022-08-21T06:05:48.022Z,81.26
2022-08-21T06:06:48.011Z,81.16
2022-08-21T06:07:47.968Z,81.05
2022-08-21T06:08:48.012Z,80.55
2022-08-21T06:09:47.963Z,81.87
2022-08-21T06:10:47.961Z,81.36
2022-08-21T06:11:47.946Z,81.26
2022-08-21T06:12:47.920Z,80.76
2022-08-21T06:13:47.899Z,80.21
2022-08-21T06:14:47.906Z,79.91
2022-08-21T06:15:47.994Z,79.71
2022-08-21T06:16:47.855Z,79.10
2022-08-21T06:17:47.843Z,78.86
2022-08-21T06:18:48.018Z,78.86
2022-08-21T06:19:47.842Z,78.66
2022-08-21T06:20:47.826Z,76.54
2022-08-21T06:21:47.902Z,76.34
2022-08-21T06:22:47.828Z,76.34
2022-08-21T06:23:47.849Z,76.40
2022-08-21T06:24:47.767Z,76.40
2022-08-21T06:25:47.742Z,75.10
2022-08-21T06:26:47.764Z,74.32
2022-08-21T06:27:47.799Z,73.82
2022-08-21T06:28:47.737Z,73.52
2022-08-21T06:29:47.738Z,73.82
2022-08-21T06:30:47.708Z,74.12
2022-08-21T06:31:47.659Z,74.22
2022-08-21T06:32:47.654Z,74.12
2022-08-21T06:33:47.657Z,72.91
2022-08-21T06:34:47.769Z,71.91
2022-08-21T06:35:47.592Z,72.20
2022-08-21T06:36:47.614Z,71.50
2022-08-21T06:37:47.588Z,71.30
2022-08-21T06:38:51.018Z,70.97
2022-08-21T06:39:47.907Z,70.76
2022-08-21T06:40:48.175Z,71.06
2022-08-21T06:41:47.615Z,69.95
2022-08-21T06:42:47.558Z,70.02
2022-08-21T06:43:47.493Z,68.85
2022-08-21T06:44:47.587Z,68.61
2022-08-21T06:45:47.451Z,68.51
2022-08-21T06:46:48.262Z,68.81
2022-08-21T06:47:47.456Z,68.11
2022-08-21T06:48:51.270Z,67.97
2022-08-21T06:49:47.487Z,67.57
2022-08-21T06:50:47.545Z,67.88
2022-08-21T06:51:47.459Z,68.28
2022-08-21T06:52:47.472Z,67.47
2022-08-21T06:53:51.550Z,67.77
2022-08-21T06:54:47.343Z,67.97
2022-08-21T06:55:47.412Z,67.47
2022-08-21T06:56:47.312Z,67.07
2022-08-21T06:57:58.856Z,67.07
2022-08-21T06:58:47.312Z,66.94
2022-08-21T06:59:47.287Z,66.94
2022-08-21T07:00:47.264Z,66.53
2022-08-21T07:01:47.327Z,65.53
2022-08-21T07:02:47.295Z,66.03
2022-08-21T07:03:47.284Z,66.13
2022-08-21T07:04:47.211Z,65.02
2022-08-21T07:05:47.206Z,65.02
2022-08-21T07:06:47.179Z,65.73
2022-08-21T07:07:47.210Z,65.39
2022-08-21T07:08:47.516Z,65.39
2022-08-21T07:09:47.146Z,64.89
2022-08-21T07:10:47.128Z,64.69
2022-08-21T07:11:47.719Z,65.90
2022-08-21T07:12:47.132Z,64.66
2022-08-21T07:13:47.101Z,64.76
2022-08-21T07:14:47.082Z,64.56
2022-08-21T07:15:47.046Z,64.36
2022-08-21T07:16:47.056Z,64.56
2022-08-21T07:17:47.029Z,64.46
2022-08-21T07:18:47.019Z,64.63
2022-08-21T07:19:47.013Z,64.23
2022-08-21T07:20:47.009Z,64.33
2022-08-21T07:21:46.971Z,64.73
2022-08-21T07:22:47.613Z,64.43
2022-08-21T07:23:46.962Z,64.23
2022-08-21T07:24:46.965Z,63.79
2022-08-21T07:25:46.955Z,64.10
2022-08-21T07:26:46.913Z,63.90
2022-08-21T07:27:46.906Z,63.49
2022-08-21T07:28:47.238Z,63.79
2022-08-21T07:29:47.845Z,63.79
2022-08-21T07:30:46.862Z,64.40
2022-08-21T07:31:46.849Z,63.56
2022-08-21T07:32:46.901Z,63.87
2022-08-21T07:33:46.877Z,63.96
2022-08-21T07:34:46.839Z,64.07
2022-08-21T07:35:46.809Z,64.67
2022-08-21T07:36:46.783Z,64.17
2022-08-21T07:37:46.843Z,64.43
2022-08-21T07:38:47.150Z,64.24
2022-08-21T07:39:46.804Z,64.43
2022-08-21T07:40:46.733Z,64.54
2022-08-21T07:41:46.781Z,64.84
2022-08-21T07:42:46.705Z,64.64
2022-08-21T07:43:46.703Z,65.04
2022-08-21T07:44:46.715Z,65.31
2022-08-21T07:45:46.683Z,65.31
2022-08-21T07:46:46.691Z,64.01
2022-08-21T07:47:46.626Z,64.40
2022-08-21T07:48:46.633Z,64.61
2022-08-21T07:49:46.895Z,64.34
2022-08-21T07:50:47.552Z,64.91
2022-08-21T07:51:46.622Z,65.01
2022-08-21T07:52:46.571Z,65.21
2022-08-21T07:53:46.546Z,65.31
2022-08-21T07:54:46.551Z,65.31
2022-08-21T07:55:46.518Z,65.74
2022-08-21T07:56:46.532Z,66.21
2022-08-21T07:57:46.497Z,65.81
2022-08-21T07:58:46.530Z,65.71
2022-08-21T07:59:46.507Z,65.91
2022-08-21T08:00:46.541Z,66.11
2022-08-21T08:01:46.566Z,66.41
2022-08-21T08:02:46.445Z,66.85
2022-08-21T08:03:46.421Z,66.82
2022-08-21T08:04:50.630Z,66.91
2022-08-21T08:05:46.454Z,66.82
2022-08-21T08:06:46.373Z,67.11
2022-08-21T08:07:46.376Z,66.61
2022-08-21T08:08:46.348Z,66.82
2022-08-21T08:09:46.363Z,66.99
2022-08-21T08:10:46.366Z,66.78
2022-08-21T08:11:46.329Z,66.58
2022-08-21T08:12:46.289Z,66.68
2022-08-21T08:13:46.293Z,66.58
2022-08-21T08:14:46.329Z,66.78
2022-08-21T08:15:46.268Z,66.78
2022-08-21T08:16:46.250Z,66.58
2022-08-21T08:17:46.256Z,66.48
2022-08-21T08:18:46.227Z,66.38
2022-08-21T08:19:46.228Z,66.68
2022-08-21T08:20:46.207Z,66.18
2022-08-21T08:21:46.189Z,66.28
2022-08-21T08:22:50.119Z,66.38
2022-08-21T08:23:46.163Z,66.45
2022-08-21T08:24:46.150Z,66.45
2022-08-21T08:25:46.128Z,66.15
2022-08-21T08:26:46.180Z,66.65
2022-08-21T08:27:47.106Z,66.25
2022-08-21T08:28:46.101Z,66.55
2022-08-21T08:29:46.087Z,66.15
2022-08-21T08:30:46.068Z,65.82
2022-08-21T08:31:46.066Z,65.65
2022-08-21T08:32:46.067Z,66.25
2022-08-21T08:33:46.028Z,66.42
2022-08-21T08:34:46.032Z,66.22
2022-08-21T08:35:46.028Z,65.72
2022-08-21T08:36:45.992Z,65.82
2022-08-21T08:37:45.986Z,65.59
2022-08-21T08:38:46.990Z,65.59
2022-08-21T08:39:46.051Z,65.69
2022-08-21T08:40:46.273Z,65.95
2022-08-21T08:41:45.925Z,65.36
2022-08-21T08:42:45.911Z,64.15
2022-08-21T08:43:45.894Z,64.25
2022-08-21T08:44:45.881Z,64.15
2022-08-21T08:45:46.198Z,64.25
2022-08-21T08:46:46.123Z,64.86
2022-08-21T08:47:45.836Z,64.75
2022-08-21T08:48:50.636Z,64.22
2022-08-21T08:49:46.850Z,64.32
2022-08-21T08:50:45.815Z,64.12
2022-08-21T08:51:45.797Z,63.72
2022-08-21T08:52:45.833Z,63.32
2022-08-21T08:53:45.766Z,63.92
2022-08-21T08:54:45.942Z,64.22
2022-08-21T08:55:45.940Z,64.22
2022-08-21T08:56:45.775Z,64.32
2022-08-21T08:57:45.767Z,64.12
2022-08-21T08:58:45.694Z,63.89
2022-08-21T08:59:45.731Z,63.39
2022-08-21T09:00:45.772Z,63.09
2022-08-21T09:01:45.679Z,63.29
2022-08-21T09:02:45.668Z,62.99
2022-08-21T09:03:45.913Z,63.09
2022-08-21T09:04:45.673Z,62.96
2022-08-21T09:05:45.603Z,63.36
2022-08-21T09:06:45.590Z,62.56
2022-08-21T09:07:45.593Z,62.66
2022-08-21T09:08:45.584Z,62.63
2022-08-21T09:09:45.553Z,62.83
2022-08-21T09:10:46.288Z,62.43
2022-08-21T09:11:45.543Z,62.50
2022-08-21T09:12:45.506Z,62.50
2022-08-21T09:13:45.498Z,62.18
2022-08-21T09:14:45.507Z,62.07
2022-08-21T09:15:45.541Z,61.05
2022-08-21T09:16:45.472Z,61.08
2022-08-21T09:17:45.446Z,60.85
2022-08-21T09:18:45.482Z,60.88
2022-08-21T09:19:45.471Z,60.58
2022-08-21T09:20:45.410Z,60.78
2022-08-21T09:21:45.385Z,61.08
2022-08-21T09:22:45.457Z,60.25
2022-08-21T09:23:45.374Z,60.65
2022-08-21T09:24:47.870Z,60.55
2022-08-21T09:25:46.381Z,60.75
2022-08-21T09:26:45.347Z,60.75
2022-08-21T09:27:45.342Z,60.85
2022-08-21T09:28:45.319Z,60.45
2022-08-21T09:29:45.309Z,60.52
2022-08-21T09:30:45.309Z,60.02
2022-08-21T09:31:45.281Z,60.39
2022-08-21T09:32:45.242Z,60.59
2022-08-21T09:33:45.235Z,59.49
2022-08-21T09:34:45.235Z,59.86
2022-08-21T09:35:45.533Z,59.39
2022-08-21T09:36:45.206Z,59.49
2022-08-21T09:37:45.201Z,58.89
2022-08-21T09:38:45.165Z,59.09
2022-08-21T09:39:48.926Z,58.70
2022-08-21T09:40:46.102Z,58.50
2022-08-21T09:41:45.758Z,58.87
2022-08-21T09:42:45.164Z,58.27
2022-08-21T09:43:45.102Z,58.67
2022-08-21T09:44:45.141Z,58.47
2022-08-21T09:45:45.064Z,59.17
2022-08-21T09:46:45.102Z,58.37
2022-08-21T09:47:45.136Z,57.94
2022-08-21T09:48:46.341Z,58.04
2022-08-21T09:49:45.310Z,57.62
2022-08-21T09:50:45.042Z,57.49
2022-08-21T09:51:45.035Z,57.05
2022-08-21T09:52:45.006Z,58.04
2022-08-21T09:53:44.967Z,58.04
2022-08-21T09:54:44.982Z,58.04
2022-08-21T09:55:44.966Z,57.75
2022-08-21T09:56:44.939Z,57.75
2022-08-21T09:57:46.831Z,57.94
2022-08-21T09:58:45.940Z,58.44
2022-08-21T09:59:44.902Z,58.24
2022-08-21T10:00:45.066Z,58.17
2022-08-21T10:01:45.139Z,58.04
2022-08-21T10:02:44.857Z,58.22
2022-08-21T10:03:44.855Z,57.52
2022-08-21T10:04:44.840Z,56.79
2022-08-21T10:05:48.997Z,57.06
2022-08-21T10:06:44.877Z,56.57
2022-08-21T10:07:44.823Z,55.97
2022-08-21T10:08:44.808Z,56.07
2022-08-21T10:09:44.801Z,55.97
2022-08-21T10:10:44.790Z,56.57
2022-08-21T10:11:44.742Z,55.77
2022-08-21T10:12:44.734Z,55.67
2022-08-21T10:13:44.721Z,55.85
2022-08-21T10:14:44.723Z,55.22
2022-08-21T10:15:44.724Z,54.63
2022-08-21T10:16:44.709Z,54.30
2022-08-21T10:17:44.664Z,53.53
2022-08-21T10:18:44.654Z,54.16
2022-08-21T10:19:44.646Z,55.05
2022-08-21T10:20:44.640Z,55.05
2022-08-21T10:21:44.605Z,55.55
2022-08-21T10:22:44.647Z,55.77
2022-08-21T10:23:44.586Z,55.70
2022-08-21T10:24:44.573Z,55.82
2022-08-21T10:25:50.459Z,56.95
2022-08-21T10:26:45.549Z,57.28
2022-08-21T10:27:44.581Z,58.12
2022-08-21T10:28:44.520Z,58.75
2022-08-21T10:29:44.802Z,59.08
2022-08-21T10:30:44.516Z,59.88
2022-08-21T10:31:44.931Z,60.28
2022-08-21T10:32:44.500Z,60.28
2022-08-21T10:33:44.459Z,60.35
2022-08-21T10:34:44.436Z,59.19
2022-08-21T10:35:44.439Z,58.37
2022-08-21T10:36:44.425Z,58.31
2022-08-21T10:37:44.442Z,57.09
2022-08-21T10:39:02.292Z,56.34
2022-08-21T10:39:46.338Z,55.65
2022-08-21T10:40:44.402Z,54.43
2022-08-21T10:41:44.356Z,51.35
2022-08-21T10:42:44.457Z,53.09
2022-08-21T10:43:44.358Z,53.14
2022-08-21T10:44:44.325Z,53.74
2022-08-21T10:45:44.310Z,52.72
2022-08-21T10:46:44.277Z,51.32
2022-08-21T10:47:44.319Z,50.90
2022-08-21T10:48:44.292Z,50.31
2022-08-21T10:49:48.355Z,50.20
2022-08-21T10:50:44.353Z,50.58
2022-08-21T10:51:46.532Z,49.76
2022-08-21T10:52:45.085Z,49.66
2022-08-21T10:53:44.247Z,48.49
2022-08-21T10:54:44.183Z,49.96
2022-08-21T10:55:44.395Z,48.84
2022-08-21T10:56:44.188Z,48.74
2022-08-21T10:57:44.141Z,48.92
2022-08-21T10:58:44.806Z,48.00
2022-08-21T10:59:44.121Z,46.22
2022-08-21T11:00:44.236Z,46.93
2022-08-21T11:01:44.087Z,47.01
2022-08-21T11:02:44.073Z,47.11
2022-08-21T11:03:44.336Z,46.39
2022-08-21T11:04:49.497Z,46.42
2022-08-21T11:05:50.145Z,47.03
2022-08-21T11:06:45.059Z,48.13
2022-08-21T11:07:44.072Z,47.95
2022-08-21T11:08:44.071Z,47.85
2022-08-21T11:09:44.023Z,48.84
2022-08-21T11:10:57.664Z,48.52
2022-08-21T11:11:50.156Z,48.60
2022-08-21T11:12:44.957Z,47.31
2022-08-21T11:13:44.013Z,47.61
2022-08-21T11:14:49.876Z,47.41
2022-08-21T11:15:46.679Z,48.25
2022-08-21T11:16:43.958Z,48.96
2022-08-21T11:17:43.938Z,49.71
2022-08-21T11:18:46.382Z,50.10
2022-08-21T11:19:43.858Z,50.23
2022-08-21T11:20:44.296Z,50.43
2022-08-21T11:21:43.833Z,50.52
2022-08-21T11:22:43.805Z,50.63
2022-08-21T11:23:43.875Z,50.31
2022-08-21T11:24:43.864Z,49.66
2022-08-21T11:25:44.026Z,49.63
2022-08-21T11:26:43.790Z,48.10
2022-08-21T11:27:43.787Z,47.68
2022-08-21T11:28:43.723Z,46.86
2022-08-21T11:29:43.734Z,46.37
2022-08-21T11:30:43.726Z,46.47
2022-08-21T11:31:43.696Z,46.89
2022-08-21T11:32:43.756Z,46.89
2022-08-21T11:33:43.673Z,46.69
2022-08-21T11:34:43.674Z,46.17
2022-08-21T11:35:46.489Z,46.17
2022-08-21T11:36:47.122Z,45.65
2022-08-21T11:37:48.642Z,45.48
2022-08-21T11:38:43.645Z,45.78
2022-08-21T11:39:43.709Z,46.64
2022-08-21T11:40:43.657Z,46.74
2022-08-21T11:41:44.323Z,46.15
2022-08-21T11:42:43.553Z,46.57
2022-08-21T11:43:43.571Z,47.09
2022-08-21T11:44:43.902Z,46.12
2022-08-21T11:45:43.541Z,46.81
2022-08-21T11:46:43.554Z,47.11
2022-08-21T11:47:43.565Z,47.55
2022-08-21T11:48:43.489Z,48.57
2022-08-21T11:49:43.541Z,48.77
2022-08-21T11:50:43.535Z,49.56
2022-08-21T11:51:43.456Z,49.26
2022-08-21T11:52:43.561Z,48.44
2022-08-21T11:53:43.426Z,48.10
2022-08-21T11:54:43.581Z,47.68
2022-08-21T11:55:47.414Z,46.47
2022-08-21T11:56:43.394Z,46.05
2022-08-21T11:57:43.575Z,45.16
2022-08-21T11:58:43.389Z,45.53
2022-08-21T11:59:45.528Z,45.45
2022-08-21T12:00:43.357Z,45.56
2022-08-21T12:01:43.573Z,45.75
2022-08-21T12:02:43.287Z,45.51
2022-08-21T12:03:43.275Z,43.98
2022-08-21T12:04:43.261Z,42.08
2022-08-21T12:05:46.010Z,41.87
2022-08-21T12:06:43.255Z,41.55
2022-08-21T12:07:43.223Z,41.43
2022-08-21T12:08:49.910Z,42.32
2022-08-21T12:10:04.250Z,42.40
2022-08-21T12:10:57.736Z,42.82
2022-08-21T12:11:43.218Z,43.23
2022-08-21T12:12:43.164Z,43.45
2022-08-21T12:13:43.151Z,44.24
2022-08-21T12:14:43.147Z,43.70
2022-08-21T12:15:43.159Z,43.21
2022-08-21T12:16:43.203Z,43.31
2022-08-21T12:17:43.132Z,42.89
2022-08-21T12:18:43.101Z,42.77
2022-08-21T12:19:43.075Z,41.59
2022-08-21T12:20:45.094Z,42.46
2022-08-21T12:21:44.424Z,41.20
2022-08-21T12:22:43.077Z,41.61
2022-08-21T12:23:43.053Z,41.49
2022-08-21T12:24:43.009Z,41.69
2022-08-21T12:25:43.022Z,41.38
2022-08-21T12:26:43.002Z,41.00
2022-08-21T12:27:43.019Z,42.08
2022-08-21T12:28:42.962Z,41.59
2022-08-21T12:29:42.958Z,41.12
2022-08-21T12:30:42.957Z,41.59
2022-08-21T12:31:42.969Z,41.27
2022-08-21T12:32:42.906Z,40.76
2022-08-21T12:33:42.914Z,39.60
2022-08-21T12:34:42.964Z,39.78
2022-08-21T12:35:42.888Z,39.70
2022-08-21T12:36:42.887Z,39.62
2022-08-21T12:37:42.988Z,39.84
2022-08-21T12:38:42.842Z,39.40
2022-08-21T12:39:42.853Z,38.32
2022-08-21T12:40:42.930Z,38.32
2022-08-21T12:41:42.828Z,38.89
2022-08-21T12:42:42.813Z,38.60
2022-08-21T12:43:42.859Z,37.47
2022-08-21T12:44:42.770Z,38.65
2022-08-21T12:45:42.760Z,38.87
2022-08-21T12:46:42.773Z,39.58
2022-08-21T12:47:42.737Z,40.69
2022-08-21T12:48:42.733Z,39.48
2022-08-21T12:49:42.710Z,39.95
2022-08-21T12:50:42.700Z,40.01
2022-08-21T12:51:43.736Z,40.05
2022-08-21T12:52:42.662Z,38.93